Time;durP1;ratioP1;P1;durP2;ratioP2;P2;SDS_P1;SDS_P2;PMS_P1;PMS_P2;Temp;Humidity;BMP_temperature;BMP_pressure;BME280_temperature;BME280_humidity;BME280_pressure;Samples;Min_cycle;Max_cycle;Signal;HPM_P1;HPM_P2
2022/07/06 00:02:34;;;;;;;;;;;;;;;;;;4940998;29;7171;-55
2022/07/06 00:05:00;;;;;;;;;;;;;;;;;;4941046;29;6845;-54
2022/07/06 00:07:30;;;;;;;;;;;;;;;;;;4942095;29;7004;-54
2022/07/06 00:09:55;;;;;;;;;;;;;;;;;;4940286;29;6802;-56
2022/07/06 00:12:21;;;;;;;;;;;;;;;;;;4941114;29;7044;-55
2022/07/06 00:14:48;;;;;;;;;;;;;;;;;;4940928;29;6940;-54
2022/07/06 00:17:13;;;;;;;;;;;;;;;;;;4940489;29;7865;-54
2022/07/06 00:19:39;;;;;;;;;;;;;;;;;;4940265;29;7361;-55
2022/07/06 00:22:04;;;;;;;;;;;;;;;;;;4940782;29;7203;-55
2022/07/06 00:24:30;;;;;;;;;;;;;;;;;;4940812;29;7343;-55
2022/07/06 00:26:58;;;;;;;;;;;;;;;;;;4940741;29;7103;-60
2022/07/06 00:29:24;;;;;;;;;;;;;;;;;;4940564;29;7028;-61
2022/07/06 00:31:59;;;;;;;;;;;;;;;;;;4939691;29;7141;-61
2022/07/06 00:34:24;;;;;;;;;;;;;;;;;;4921688;29;6953;-61
2022/07/06 00:36:49;;;;;;;;;;;;;;;;;;4922204;29;7187;-61
2022/07/06 00:39:31;;;;;;;;;;;;;;;;;;4922125;29;6971;-61
2022/07/06 00:41:57;;;;;;;;;;;;;;;;;;4921205;29;7603;-61
2022/07/06 00:47:30;;;;;;;;;;;;;;;;;;4922301;29;6681;-61
2022/07/06 00:53:04;;;;;;;;;;;;;;;;;;4921575;29;6922;-61
2022/07/06 00:55:31;;;;;;;;;;;;;;;;;;4922827;29;7041;-61
2022/07/06 00:58:04;;;;;;;;;;;;;;;;;;4921011;29;6915;-61
2022/07/06 01:00:33;;;;;;;;;;;;;;;;;;4921561;29;7049;-61
2022/07/06 01:03:05;;;;;;;;;;;;;;;;;;4923597;29;6994;-61
2022/07/06 01:05:30;;;;;;;;;;;;;;;;;;4920417;29;6928;-61
2022/07/06 01:07:56;;;;;;;;;;;;;;;;;;4920377;29;7089;-61
2022/07/06 01:10:22;;;;;;;;;;;;;;;;;;4919956;29;7014;-61
2022/07/06 01:12:56;;;;;;;;;;;;;;;;;;4921357;29;6929;-61
2022/07/06 01:15:24;;;;;;;;;;;;;;;;;;4920814;29;6939;-61
2022/07/06 01:17:50;;;;;;;;;;;;;;;;;;4921293;29;7245;-61
2022/07/06 01:20:18;;;;;;;;;;;;;;;;;;4921550;29;6933;-61
2022/07/06 01:22:59;;;;;;;;;;;;;;;;;;4920903;29;7584;-61
2022/07/06 01:25:25;;;;;;;;;;;;;;;;;;4921738;29;6818;-61
2022/07/06 01:28:05;;;;;;;;;;;;;;;;;;4921051;29;7036;-61
2022/07/06 01:30:31;;;;;;;;;;;;;;;;;;4921004;29;6813;-61
2022/07/06 01:32:56;;;;;;;;;;;;;;;;;;4928888;29;7211;-61
2022/07/06 01:35:35;;;;;;;;;;;;;;;;;;4940559;29;7159;-61
2022/07/06 01:38:01;;;;;;;;;;;;;;;;;;4940123;29;6998;-61
2022/07/06 01:40:26;;;;;;;;;;;;;;;;;;4939644;29;7160;-61
2022/07/06 01:42:52;;;;;;;;;;;;;;;;;;4939050;29;6929;-61
2022/07/06 01:45:18;;;;;;;;;;;;;;;;;;5137538;23;7418;-91
2022/07/06 01:47:44;;;;;;;;;;;;;;;;;;4960281;28;8315;-90
2022/07/06 01:50:10;;;;;;;;;;;;;;;;;;4961228;28;6840;-89
2022/07/06 01:52:37;;;;;;;;;;;;;;;;;;4963010;28;6927;-89
2022/07/06 01:55:04;;;;;;;;;;;;;;;;;;4961622;28;7077;-89
2022/07/06 01:57:30;;;;;;;;;;;;;;;;;;4962831;28;6999;-89
2022/07/06 01:59:57;;;;;;;;;;;;;;;;;;4961212;28;7025;-91
2022/07/06 02:02:37;;;;;;;;;;;;;;;;;;4959084;28;6942;-87
2022/07/06 02:05:03;;;;;;;;;;;;;;;;;;4956851;28;8287;-90
2022/07/06 02:07:28;;;;;;;;;;;;;;;;;;4956711;28;6998;-90
2022/07/06 02:09:54;;;;;;;;;;;;;;;;;;4956776;28;7182;-90
2022/07/06 02:12:20;;;;;;;;;;;;;;;;;;4956682;28;8336;-92
2022/07/06 02:14:47;;;;;;;;;;;;;;;;;;4956207;28;7410;-90
2022/07/06 02:17:12;;;;;;;;;;;;;;;;;;4956977;28;7314;-91
2022/07/06 02:19:41;;;;;;;;;;;;;;;;;;4956108;28;7376;-91
2022/07/06 02:22:07;;;;;;;;;;;;;;;;;;4956599;28;6951;-91
2022/07/06 02:24:35;;;;;;;;;;;;;;;;;;4957551;28;7020;-91
2022/07/06 02:27:01;;;;;;;;;;;;;;;;;;4958175;28;7260;-90
2022/07/06 02:29:27;;;;;;;;;;;;;;;;;;4940994;28;8766;-90
2022/07/06 02:31:53;;;;;;;;;;;;;;;;;;4956013;28;8254;-89
2022/07/06 02:34:18;;;;;;;;;;;;;;;;;;4955919;28;8395;-90
2022/07/06 02:36:44;;;;;;;;;;;;;;;;;;4955992;28;7080;-89
2022/07/06 02:39:09;;;;;;;;;;;;;;;;;;4955623;28;7919;-91
2022/07/06 02:41:35;;;;;;;;;;;;;;;;;;4955881;28;8497;-91
2022/07/06 02:44:00;;;;;;;;;;;;;;;;;;4951871;28;7029;-91
2022/07/06 02:46:26;;;;;;;;;;;;;;;;;;4937030;29;8697;-90
2022/07/06 02:48:51;;;;;;;;;;;;;;;;;;4936730;29;7241;-90
2022/07/06 02:51:17;;;;;;;;;;;;;;;;;;4952911;28;7046;-90
2022/07/06 02:53:43;;;;;;;;;;;;;;;;;;4936951;29;7212;-91
2022/07/06 02:56:08;;;;;;;;;;;;;;;;;;4936661;29;8422;-91
2022/07/06 02:58:34;;;;;;;;;;;;;;;;;;4937253;29;8210;-91
2022/07/06 03:01:00;;;;;;;;;;;;;;;;;;4936814;29;7221;-90
2022/07/06 03:03:25;;;;;;;;;;;;;;;;;;4936790;29;8564;-90
2022/07/06 03:05:54;;;;;;;;;;;;;;;;;;4936712;29;8408;-91
2022/07/06 03:08:19;;;;;;;;;;;;;;;;;;4938495;29;6811;-90
2022/07/06 03:10:45;;;;;;;;;;;;;;;;;;4936441;29;7127;-90
2022/07/06 03:13:11;;;;;;;;;;;;;;;;;;4937417;29;7020;-91
2022/07/06 03:15:36;;;;;;;;;;;;;;;;;;4936977;29;8384;-90
2022/07/06 03:18:02;;;;;;;;;;;;;;;;;;4939681;29;7136;-89
2022/07/06 03:20:28;;;;;;;;;;;;;;;;;;4940316;29;8353;-89
2022/07/06 03:22:53;;;;;;;;;;;;;;;;;;4940121;29;7213;-89
2022/07/06 03:25:19;;;;;;;;;;;;;;;;;;4940134;29;8279;-90
2022/07/06 03:27:44;;;;;;;;;;;;;;;;;;4939974;29;7022;-90
2022/07/06 03:30:10;;;;;;;;;;;;;;;;;;4939997;29;8867;-88
2022/07/06 03:32:35;;;;;;;;;;;;;;;;;;4939546;29;7251;-90
2022/07/06 03:35:01;;;;;;;;;;;;;;;;;;4940116;29;8676;-89
2022/07/06 03:37:26;;;;;;;;;;;;;;;;;;4939811;29;8400;-89
2022/07/06 03:39:52;;;;;;;;;;;;;;;;;;4940007;29;8419;-89
2022/07/06 03:42:17;;;;;;;;;;;;;;;;;;4940088;29;8420;-90
2022/07/06 03:44:43;;;;;;;;;;;;;;;;;;4948916;28;7145;-90
2022/07/06 03:47:08;;;;;;;;;;;;;;;;;;4958278;28;7475;-90
2022/07/06 03:49:34;;;;;;;;;;;;;;;;;;4959953;28;7010;-89
2022/07/06 03:51:59;;;;;;;;;;;;;;;;;;4943291;28;7797;-90
2022/07/06 03:54:25;;;;;;;;;;;;;;;;;;4958648;28;8436;-90
2022/07/06 03:56:50;;;;;;;;;;;;;;;;;;4958839;28;8489;-90
2022/07/06 03:59:15;;;;;;;;;;;;;;;;;;4959153;28;7377;-90
2022/07/06 04:01:41;;;;;;;;;;;;;;;;;;4958528;28;8383;-89
2022/07/06 04:04:07;;;;;;;;;;;;;;;;;;4958869;28;7397;-91
2022/07/06 04:06:34;;;;;;;;;;;;;;;;;;4961608;28;7230;-90
2022/07/06 04:09:00;;;;;;;;;;;;;;;;;;4978007;28;7172;-92
2022/07/06 04:11:25;;;;;;;;;;;;;;;;;;4977971;28;8766;-90
2022/07/06 04:13:51;;;;;;;;;;;;;;;;;;4977505;28;8471;-90
2022/07/06 04:16:17;;;;;;;;;;;;;;;;;;4977840;28;7003;-90
2022/07/06 04:18:42;;;;;;;;;;;;;;;;;;4978155;28;6783;-90
2022/07/06 04:21:08;;;;;;;;;;;;;;;;;;4977886;28;8343;-91
2022/07/06 04:23:33;;;;;;;;;;;;;;;;;;4977956;28;8475;-92
2022/07/06 04:25:59;;;;;;;;;;;;;;;;;;4977980;28;7010;-89
2022/07/06 04:28:24;;;;;;;;;;;;;;;;;;4976812;28;7374;-91
2022/07/06 04:30:50;;;;;;;;;;;;;;;;;;4977668;28;6986;-90
2022/07/06 04:33:15;;;;;;;;;;;;;;;;;;4977446;28;6983;-90
2022/07/06 04:35:41;;;;;;;;;;;;;;;;;;4977485;28;8672;-91
2022/07/06 04:38:06;;;;;;;;;;;;;;;;;;4978039;28;7149;-90
2022/07/06 04:40:32;;;;;;;;;;;;;;;;;;4977426;28;9191;-90
2022/07/06 04:42:57;;;;;;;;;;;;;;;;;;4977625;28;8435;-91
2022/07/06 04:45:23;;;;;;;;;;;;;;;;;;4977064;28;7113;-90
2022/07/06 04:47:49;;;;;;;;;;;;;;;;;;4977230;28;8424;-89
2022/07/06 04:50:14;;;;;;;;;;;;;;;;;;4976803;28;7214;-91
2022/07/06 04:52:40;;;;;;;;;;;;;;;;;;4976827;28;7015;-92
2022/07/06 04:55:05;;;;;;;;;;;;;;;;;;4977157;28;7149;-90
2022/07/06 04:57:31;;;;;;;;;;;;;;;;;;4976266;28;8383;-90
2022/07/06 04:59:57;;;;;;;;;;;;;;;;;;4975823;28;7231;-90
2022/07/06 05:02:22;;;;;;;;;;;;;;;;;;4976252;28;6894;-92
2022/07/06 05:04:48;;;;;;;;;;;;;;;;;;4976977;28;7175;-90
2022/07/06 05:07:13;;;;;;;;;;;;;;;;;;4976181;28;8452;-90
2022/07/06 05:09:39;;;;;;;;;;;;;;;;;;4976932;28;8716;-90
2022/07/06 05:12:05;;;;;;;;;;;;;;;;;;4976382;28;7270;-90
2022/07/06 05:14:30;;;;;;;;;;;;;;;;;;4976989;28;6993;-90
2022/07/06 05:16:55;;;;;;;;;;;;;;;;;;4976959;28;8499;-90
2022/07/06 05:19:21;;;;;;;;;;;;;;;;;;4976275;28;8357;-89
2022/07/06 05:21:46;;;;;;;;;;;;;;;;;;4975607;28;7209;-91
2022/07/06 05:24:12;;;;;;;;;;;;;;;;;;4972209;28;7069;-86
2022/07/06 05:26:38;;;;;;;;;;;;;;;;;;4973432;28;7286;-90
2022/07/06 05:29:03;;;;;;;;;;;;;;;;;;4975342;28;8710;-89
2022/07/06 05:31:29;;;;;;;;;;;;;;;;;;4975344;28;7141;-90
2022/07/06 05:33:54;;;;;;;;;;;;;;;;;;4975485;28;6995;-90
2022/07/06 05:36:19;;;;;;;;;;;;;;;;;;4975336;28;8668;-89
2022/07/06 05:38:45;;;;;;;;;;;;;;;;;;4975481;28;8347;-89
2022/07/06 05:41:10;;;;;;;;;;;;;;;;;;4975390;28;8369;-90
2022/07/06 05:43:37;;;;;;;;;;;;;;;;;;4974153;28;7004;-90
2022/07/06 05:46:03;;;;;;;;;;;;;;;;;;4973110;28;8727;-91
2022/07/06 05:51:12;;;;;;;;;;;;;;;;;;4975740;28;6949;-89
2022/07/06 05:53:38;;;;;;;;;;;;;;;;;;4974350;28;7039;-91
2022/07/06 05:56:03;;;;;;;;;;;;;;;;;;4974441;28;8291;-91
2022/07/06 05:58:29;;;;;;;;;;;;;;;;;;4975386;28;8696;-89
2022/07/06 06:00:54;;;;;;;;;;;;;;;;;;4974760;28;8474;-90
2022/07/06 06:03:20;;;;;;;;;;;;;;;;;;4975234;28;7019;-91
2022/07/06 06:05:45;;;;;;;;;;;;;;;;;;4975246;28;6984;-90
2022/07/06 06:08:11;;;;;;;;;;;;;;;;;;4974361;28;6968;-90
2022/07/06 06:10:36;;;;;;;;;;;;;;;;;;4975101;28;8579;-91
2022/07/06 06:13:02;;;;;;;;;;;;;;;;;;4975056;28;8281;-91
2022/07/06 06:15:27;;;;;;;;;;;;;;;;;;4974680;28;8356;-91
2022/07/06 06:17:53;;;;;;;;;;;;;;;;;;4976673;28;8545;-92
2022/07/06 06:20:19;;;;;;;;;;;;;;;;;;4979023;28;7070;-91
2022/07/06 06:22:45;;;;;;;;;;;;;;;;;;4975994;28;8584;-89
2022/07/06 06:25:11;;;;;;;;;;;;;;;;;;4980360;28;8387;-92
2022/07/06 06:27:36;;;;;;;;;;;;;;;;;;4973916;28;8413;-90
2022/07/06 06:30:02;;;;;;;;;;;;;;;;;;4973947;28;6982;-92
2022/07/06 06:32:28;;;;;;;;;;;;;;;;;;4975286;28;8263;-91
2022/07/06 06:34:53;;;;;;;;;;;;;;;;;;4974855;28;8784;-91
2022/07/06 06:37:19;;;;;;;;;;;;;;;;;;4973858;28;8346;-91
2022/07/06 06:39:44;;;;;;;;;;;;;;;;;;4975202;28;8662;-90
2022/07/06 06:42:10;;;;;;;;;;;;;;;;;;4974906;28;7019;-91
2022/07/06 06:44:35;;;;;;;;;;;;;;;;;;4973974;28;8297;-91
2022/07/06 06:47:01;;;;;;;;;;;;;;;;;;4974469;28;8770;-92
2022/07/06 06:49:26;;;;;;;;;;;;;;;;;;4974908;28;8687;-92
2022/07/06 06:51:52;;;;;;;;;;;;;;;;;;4975409;28;7249;-92
2022/07/06 06:54:17;;;;;;;;;;;;;;;;;;4974757;28;7115;-88
2022/07/06 06:56:43;;;;;;;;;;;;;;;;;;4973476;28;6992;-91
2022/07/06 06:59:08;;;;;;;;;;;;;;;;;;4973313;28;8292;-91
2022/07/06 07:01:34;;;;;;;;;;;;;;;;;;4974250;28;7390;-90
2022/07/06 07:03:59;;;;;;;;;;;;;;;;;;4974248;28;9038;-90
2022/07/06 07:06:25;;;;;;;;;;;;;;;;;;4973506;28;8817;-90
2022/07/06 07:08:50;;;;;;;;;;;;;;;;;;4974226;28;6991;-89
2022/07/06 07:11:16;;;;;;;;;;;;;;;;;;4973779;28;8319;-89
2022/07/06 07:13:41;;;;;;;;;;;;;;;;;;4973723;28;8284;-89
2022/07/06 07:16:07;;;;;;;;;;;;;;;;;;4974337;28;7041;-90
2022/07/06 07:18:32;;;;;;;;;;;;;;;;;;4974104;28;7143;-91
2022/07/06 07:20:58;;;;;;;;;;;;;;;;;;4975095;28;8574;-88
2022/07/06 07:23:23;;;;;;;;;;;;;;;;;;4972797;28;8421;-91
2022/07/06 07:25:49;;;;;;;;;;;;;;;;;;4973667;28;8796;-90
2022/07/06 07:28:14;;;;;;;;;;;;;;;;;;4974014;28;6945;-91
2022/07/06 07:30:40;;;;;;;;;;;;;;;;;;4973682;28;8464;-90
2022/07/06 07:33:06;;;;;;;;;;;;;;;;;;4973702;28;7034;-90
2022/07/06 07:35:31;;;;;;;;;;;;;;;;;;4973525;28;8443;-90
2022/07/06 07:37:57;;;;;;;;;;;;;;;;;;4973165;28;8438;-88
2022/07/06 07:40:22;;;;;;;;;;;;;;;;;;4973681;28;7114;-88
2022/07/06 07:42:47;;;;;;;;;;;;;;;;;;4973068;28;8611;-87
2022/07/06 07:45:13;;;;;;;;;;;;;;;;;;4973701;28;7442;-87
2022/07/06 07:47:39;;;;;;;;;;;;;;;;;;4973128;28;7051;-90
2022/07/06 07:50:05;;;;;;;;;;;;;;;;;;4972967;28;8079;-90
2022/07/06 07:52:31;;;;;;;;;;;;;;;;;;4973787;28;8315;-86
2022/07/06 07:54:56;;;;;;;;;;;;;;;;;;4974037;28;7366;-87
2022/07/06 07:57:21;;;;;;;;;;;;;;;;;;4973215;28;7018;-89
2022/07/06 07:59:47;;;;;;;;;;;;;;;;;;4972963;28;7021;-90
2022/07/06 08:02:12;;;;;;;;;;;;;;;;;;4973820;28;7101;-87
2022/07/06 08:04:38;;;;;;;;;;;;;;;;;;4976807;28;8980;-89
2022/07/06 08:07:03;;;;;;;;;;;;;;;;;;4977037;28;8665;-90
2022/07/06 08:09:29;;;;;;;;;;;;;;;;;;4976920;28;8604;-90
2022/07/06 08:11:55;;;;;;;;;;;;;;;;;;4977045;28;8390;-91
2022/07/06 08:14:20;;;;;;;;;;;;;;;;;;4976711;28;6983;-92
2022/07/06 08:16:45;;;;;;;;;;;;;;;;;;4976367;28;8409;-93
2022/07/06 08:19:14;;;;;;;;;;;;;;;;;;4976642;28;8442;-90
2022/07/06 08:21:40;;;;;;;;;;;;;;;;;;4976833;28;6843;-91
2022/07/06 08:24:06;;;;;;;;;;;;;;;;;;4977019;28;7399;-90
2022/07/06 08:26:32;;;;;;;;;;;;;;;;;;4976883;28;8927;-89
2022/07/06 08:28:58;;;;;;;;;;;;;;;;;;4976430;28;8736;-90
2022/07/06 08:31:23;;;;;;;;;;;;;;;;;;4971409;28;7047;-90
2022/07/06 08:33:48;;;;;;;;;;;;;;;;;;4973341;28;8432;-90
2022/07/06 08:36:15;;;;;;;;;;;;;;;;;;4976346;28;8397;-90
2022/07/06 08:38:40;;;;;;;;;;;;;;;;;;4976719;28;8318;-90
2022/07/06 08:41:06;;;;;;;;;;;;;;;;;;4976395;28;8863;-92
2022/07/06 08:43:32;;;;;;;;;;;;;;;;;;4976125;28;7590;-89
2022/07/06 08:45:58;;;;;;;;;;;;;;;;;;4977169;28;7087;-90
2022/07/06 08:48:25;;;;;;;;;;;;;;;;;;4976539;28;7407;-90
2022/07/06 08:50:50;;;;;;;;;;;;;;;;;;4975428;28;7056;-89
2022/07/06 08:53:17;;;;;;;;;;;;;;;;;;4976581;28;7097;-89
2022/07/06 08:55:43;;;;;;;;;;;;;;;;;;4976418;28;7288;-90
2022/07/06 08:58:09;;;;;;;;;;;;;;;;;;4976201;28;6828;-90
2022/07/06 09:00:35;;;;;;;;;;;;;;;;;;4976551;28;8375;-92
2022/07/06 09:03:01;;;;;;;;;;;;;;;;;;4975826;28;8447;-91
2022/07/06 09:05:28;;;;;;;;;;;;;;;;;;4975272;28;8451;-92
2022/07/06 09:07:55;;;;;;;;;;;;;;;;;;4976171;28;8458;-92
2022/07/06 09:10:21;;;;;;;;;;;;;;;;;;4976336;28;7174;-92
2022/07/06 09:12:47;;;;;;;;;;;;;;;;;;4974427;28;7051;-91
2022/07/06 09:15:13;;;;;;;;;;;;;;;;;;4973328;28;8354;-91
2022/07/06 09:17:40;;;;;;;;;;;;;;;;;;4915370;28;11900;-75
2022/07/06 09:20:08;;;;;;;;;;;;;;;;;;4994433;28;8654;-84
2022/07/06 09:22:34;;;;;;;;;;;;;;;;;;4980220;28;8333;-84
2022/07/06 09:25:07;;;;;;;;;;;;;;;;;;4994655;28;7065;-89
2022/07/06 09:27:36;;;;;;;;;;;;;;;;;;4978697;28;8594;-85
2022/07/06 09:30:02;;;;;;;;;;;;;;;;;;4978706;28;8775;-91
2022/07/06 09:32:28;;;;;;;;;;;;;;;;;;4978459;28;8495;-87
2022/07/06 09:34:55;;;;;;;;;;;;;;;;;;4978296;28;8878;-88
2022/07/06 09:37:22;;;;;;;;;;;;;;;;;;4994244;28;7050;-87
2022/07/06 09:39:47;;;;;;;;;;;;;;;;;;4979980;28;7030;-86
2022/07/06 09:42:13;;;;;;;;;;;;;;;;;;4995963;28;7038;-90
2022/07/06 09:44:40;;;;;;;;;;;;;;;;;;4998003;28;8416;-89
2022/07/06 09:47:10;;;;;;;;;;;;;;;;;;4981990;28;7273;-90
2022/07/06 09:49:36;;;;;;;;;;;;;;;;;;4978696;28;8738;-91
2022/07/06 09:52:06;;;;;;;;;;;;;;;;;;4978409;28;7815;-88
2022/07/06 09:54:36;;;;;;;;;;;;;;;;;;4977837;28;8438;-89
2022/07/06 09:57:03;;;;;;;;;;;;;;;;;;4977864;28;7842;-89
2022/07/06 09:59:30;;;;;;;;;;;;;;;;;;4978494;28;8431;-89
2022/07/06 10:02:04;;;;;;;;;;;;;;;;;;4978575;28;7191;-91
2022/07/06 10:04:30;;;;;;;;;;;;;;;;;;4977657;28;8320;-89
2022/07/06 10:06:56;;;;;;;;;;;;;;;;;;4974137;28;7135;-89
2022/07/06 10:09:23;;;;;;;;;;;;;;;;;;4976969;28;8496;-88
2022/07/06 10:11:51;;;;;;;;;;;;;;;;;;4977672;28;7185;-84
2022/07/06 10:14:18;;;;;;;;;;;;;;;;;;4977471;28;8448;-84
2022/07/06 10:16:46;;;;;;;;;;;;;;;;;;4977456;28;8371;-85
2022/07/06 10:19:11;;;;;;;;;;;;;;;;;;4977193;28;7055;-86
2022/07/06 10:21:38;;;;;;;;;;;;;;;;;;4993904;28;8316;-89
2022/07/06 10:24:04;;;;;;;;;;;;;;;;;;4977216;28;8504;-90
2022/07/06 10:26:31;;;;;;;;;;;;;;;;;;4977438;28;8453;-89
2022/07/06 10:29:01;;;;;;;;;;;;;;;;;;4977428;28;7175;-89
2022/07/06 10:31:30;;;;;;;;;;;;;;;;;;4977773;28;8446;-90
2022/07/06 10:33:58;;;;;;;;;;;;;;;;;;4976812;28;7052;-86
2022/07/06 10:36:24;;;;;;;;;;;;;;;;;;4977367;28;8903;-86
2022/07/06 10:38:50;;;;;;;;;;;;;;;;;;4977380;28;8774;-87
2022/07/06 10:41:16;;;;;;;;;;;;;;;;;;4976967;28;7438;-86
2022/07/06 10:43:44;;;;;;;;;;;;;;;;;;4976634;28;8801;-90
2022/07/06 10:46:13;;;;;;;;;;;;;;;;;;4969319;28;7025;-88
2022/07/06 10:48:40;;;;;;;;;;;;;;;;;;4957098;28;7213;-89
2022/07/06 10:51:06;;;;;;;;;;;;;;;;;;4970605;28;8448;-88
2022/07/06 10:53:38;;;;;;;;;;;;;;;;;;4977474;28;7083;-87
2022/07/06 10:56:07;;;;;;;;;;;;;;;;;;4976518;28;8655;-87
2022/07/06 10:58:48;;;;;;;;;;;;;;;;;;4977404;28;6855;-85
2022/07/06 11:01:14;;;;;;;;;;;;;;;;;;4976798;28;8495;-85
2022/07/06 11:03:48;;;;;;;;;;;;;;;;;;4976391;28;8427;-84
2022/07/06 11:06:13;;;;;;;;;;;;;;;;;;4976344;28;7184;-85
2022/07/06 11:08:42;;;;;;;;;;;;;;;;;;4993104;28;7114;-84
2022/07/06 11:11:11;;;;;;;;;;;;;;;;;;4992505;28;7225;-84
2022/07/06 11:13:54;;;;;;;;;;;;;;;;;;4977221;28;8484;-88
2022/07/06 11:16:22;;;;;;;;;;;;;;;;;;4978464;28;7191;-89
2022/07/06 11:19:10;;;;;;;;;;;;;;;;;;4981776;28;8301;-88
2022/07/06 11:21:46;;;;;;;;;;;;;;;;;;4986242;28;7176;-88
2022/07/06 11:24:14;;;;;;;;;;;;;;;;;;4977796;28;7175;-88
2022/07/06 11:26:41;;;;;;;;;;;;;;;;;;4977338;28;8723;-89
2022/07/06 11:29:08;;;;;;;;;;;;;;;;;;4976882;28;7367;-88
2022/07/06 11:31:38;;;;;;;;;;;;;;;;;;4977085;28;7154;-90
2022/07/06 11:34:04;;;;;;;;;;;;;;;;;;4976281;28;8496;-91
2022/07/06 11:36:30;;;;;;;;;;;;;;;;;;4977250;28;8447;-86
2022/07/06 11:38:55;;;;;;;;;;;;;;;;;;4979778;28;8684;-89
2022/07/06 11:41:21;;;;;;;;;;;;;;;;;;4980704;28;8389;-90
2022/07/06 11:43:50;;;;;;;;;;;;;;;;;;4997125;28;8499;-90
2022/07/06 11:46:22;;;;;;;;;;;;;;;;;;4980386;28;8443;-89
2022/07/06 11:48:52;;;;;;;;;;;;;;;;;;4996139;28;7290;-88
2022/07/06 11:51:17;;;;;;;;;;;;;;;;;;4980375;28;7081;-89
2022/07/06 11:53:45;;;;;;;;;;;;;;;;;;4980458;28;8548;-88
2022/07/06 11:56:11;;;;;;;;;;;;;;;;;;4980015;28;7123;-86
2022/07/06 11:58:38;;;;;;;;;;;;;;;;;;4991372;28;8342;-89
2022/07/06 12:01:08;;;;;;;;;;;;;;;;;;4980565;28;8412;-86
2022/07/06 12:03:34;;;;;;;;;;;;;;;;;;4979550;28;8900;-88
2022/07/06 12:06:05;;;;;;;;;;;;;;;;;;4979938;28;7319;-91
2022/07/06 12:08:30;;;;;;;;;;;;;;;;;;4979590;28;8497;-90
2022/07/06 12:10:56;;;;;;;;;;;;;;;;;;4995997;28;8461;-89
2022/07/06 12:13:24;;;;;;;;;;;;;;;;;;4998117;28;8833;-89
2022/07/06 12:15:50;;;;;;;;;;;;;;;;;;4992188;28;7242;-88
2022/07/06 12:18:16;;;;;;;;;;;;;;;;;;4987386;28;8526;-90
2022/07/06 12:20:42;;;;;;;;;;;;;;;;;;4980170;28;7710;-88
2022/07/06 12:23:08;;;;;;;;;;;;;;;;;;4979723;28;8479;-89
2022/07/06 12:25:34;;;;;;;;;;;;;;;;;;4995897;28;7100;-89
2022/07/06 12:28:00;;;;;;;;;;;;;;;;;;4979146;28;8353;-89
2022/07/06 12:30:26;;;;;;;;;;;;;;;;;;4995787;28;8529;-88
2022/07/06 12:33:10;;;;;;;;;;;;;;;;;;4979272;28;8430;-89
2022/07/06 12:35:35;;;;;;;;;;;;;;;;;;4995711;28;8353;-89
2022/07/06 12:38:01;;;;;;;;;;;;;;;;;;4995489;28;8350;-89
2022/07/06 12:40:30;;;;;;;;;;;;;;;;;;4995218;28;7047;-90
2022/07/06 12:42:55;;;;;;;;;;;;;;;;;;4979928;28;7190;-89
2022/07/06 12:45:27;;;;;;;;;;;;;;;;;;4995350;28;7051;-90
2022/07/06 12:48:03;;;;;;;;;;;;;;;;;;4979105;28;9264;-92
2022/07/06 12:50:33;;;;;;;;;;;;;;;;;;4979263;28;7308;-88
2022/07/06 12:53:00;;;;;;;;;;;;;;;;;;4980111;28;7217;-88
2022/07/06 12:55:27;;;;;;;;;;;;;;;;;;4978564;28;7381;-87
2022/07/06 12:57:54;;;;;;;;;;;;;;;;;;4979033;28;8679;-86
2022/07/06 13:00:21;;;;;;;;;;;;;;;;;;4979336;28;7105;-86
2022/07/06 13:02:56;;;;;;;;;;;;;;;;;;4979614;28;8800;-87
2022/07/06 13:05:30;;;;;;;;;;;;;;;;;;4979260;28;7135;-88
2022/07/06 13:07:58;;;;;;;;;;;;;;;;;;4979388;28;8384;-88
2022/07/06 13:10:24;;;;;;;;;;;;;;;;;;4978401;28;7092;-83
2022/07/06 13:12:51;;;;;;;;;;;;;;;;;;4979333;28;9139;-86
2022/07/06 13:15:17;;;;;;;;;;;;;;;;;;4979260;28;8347;-87
2022/07/06 13:17:43;;;;;;;;;;;;;;;;;;4978689;28;8787;-87
2022/07/06 13:20:10;;;;;;;;;;;;;;;;;;4976921;28;8453;-85
2022/07/06 13:22:39;;;;;;;;;;;;;;;;;;4978999;28;8697;-84
2022/07/06 13:25:05;;;;;;;;;;;;;;;;;;4978865;28;8488;-87
2022/07/06 13:27:30;;;;;;;;;;;;;;;;;;4979244;28;8511;-87
2022/07/06 13:29:56;;;;;;;;;;;;;;;;;;4994561;28;8505;-87
2022/07/06 13:32:21;;;;;;;;;;;;;;;;;;4995716;28;8327;-87
2022/07/06 13:34:47;;;;;;;;;;;;;;;;;;4995781;28;8699;-87
2022/07/06 13:37:13;;;;;;;;;;;;;;;;;;4995651;28;8620;-88
2022/07/06 13:39:39;;;;;;;;;;;;;;;;;;4995747;28;7008;-87
2022/07/06 13:42:05;;;;;;;;;;;;;;;;;;4979488;28;7257;-87
2022/07/06 13:44:30;;;;;;;;;;;;;;;;;;4992020;28;8804;-87
2022/07/06 13:46:56;;;;;;;;;;;;;;;;;;4975472;28;8341;-88
2022/07/06 13:49:22;;;;;;;;;;;;;;;;;;4975933;28;7012;-73
2022/07/06 13:51:47;;;;;;;;;;;;;;;;;;4972917;28;8356;-81
2022/07/06 13:54:13;;;;;;;;;;;;;;;;;;4974866;28;8702;-79
2022/07/06 13:56:39;;;;;;;;;;;;;;;;;;4975678;28;8649;-82
2022/07/06 13:59:05;;;;;;;;;;;;;;;;;;4974868;28;8465;-81
2022/07/06 14:01:30;;;;;;;;;;;;;;;;;;4949591;28;8706;-80
2022/07/06 14:03:55;;;;;;;;;;;;;;;;;;4989456;28;7177;-82
2022/07/06 14:06:21;;;;;;;;;;;;;;;;;;4993946;28;8413;-82
2022/07/06 14:08:47;;;;;;;;;;;;;;;;;;4992832;28;8444;-80
2022/07/06 14:11:12;;;;;;;;;;;;;;;;;;4994096;28;8405;-77
2022/07/06 14:13:38;;;;;;;;;;;;;;;;;;4993627;28;8709;-80
2022/07/06 14:16:04;;;;;;;;;;;;;;;;;;4994261;28;8666;-83
2022/07/06 14:18:29;;;;;;;;;;;;;;;;;;4994601;28;8568;-81
2022/07/06 14:20:55;;;;;;;;;;;;;;;;;;4993148;28;9304;-82
2022/07/06 14:23:22;;;;;;;;;;;;;;;;;;4991113;28;8793;-81
2022/07/06 14:25:48;;;;;;;;;;;;;;;;;;4993145;28;8717;-78
2022/07/06 14:28:13;;;;;;;;;;;;;;;;;;4947942;28;8713;-81
2022/07/06 14:30:39;;;;;;;;;;;;;;;;;;4974564;28;8605;-82
2022/07/06 14:33:07;;;;;;;;;;;;;;;;;;4973579;28;8309;-81
2022/07/06 14:35:36;;;;;;;;;;;;;;;;;;4956661;28;7198;-83
2022/07/06 14:38:02;;;;;;;;;;;;;;;;;;4958629;28;8739;-80
2022/07/06 14:40:28;;;;;;;;;;;;;;;;;;4958088;28;8433;-82
2022/07/06 14:42:53;;;;;;;;;;;;;;;;;;4973163;28;7212;-81
2022/07/06 14:45:19;;;;;;;;;;;;;;;;;;4973794;28;8674;-82
2022/07/06 14:47:44;;;;;;;;;;;;;;;;;;4958297;28;8406;-76
2022/07/06 14:50:10;;;;;;;;;;;;;;;;;;4957510;28;8528;-81
2022/07/06 14:52:35;;;;;;;;;;;;;;;;;;4974086;28;8383;-81
2022/07/06 14:55:01;;;;;;;;;;;;;;;;;;4974411;28;8514;-81
2022/07/06 14:57:26;;;;;;;;;;;;;;;;;;4973703;28;7189;-82
2022/07/06 14:59:51;;;;;;;;;;;;;;;;;;4976991;28;8479;-82
2022/07/06 15:02:17;;;;;;;;;;;;;;;;;;4975312;28;7177;-79
2022/07/06 15:04:43;;;;;;;;;;;;;;;;;;4975051;28;8441;-81
2022/07/06 15:07:08;;;;;;;;;;;;;;;;;;4974656;28;8435;-83
2022/07/06 15:09:33;;;;;;;;;;;;;;;;;;4973969;28;8794;-86
2022/07/06 15:11:59;;;;;;;;;;;;;;;;;;4974597;28;8494;-79
2022/07/06 15:14:25;;;;;;;;;;;;;;;;;;4977331;28;8520;-80
2022/07/06 15:16:52;;;;;;;;;;;;;;;;;;4978653;28;8502;-80
2022/07/06 15:19:17;;;;;;;;;;;;;;;;;;4977507;28;8984;-80
2022/07/06 15:21:43;;;;;;;;;;;;;;;;;;4977304;28;7186;-80
2022/07/06 15:24:09;;;;;;;;;;;;;;;;;;4976538;28;8472;-80
2022/07/06 15:26:34;;;;;;;;;;;;;;;;;;4976897;28;8946;-80
2022/07/06 15:29:00;;;;;;;;;;;;;;;;;;4977300;28;7150;-77
2022/07/06 15:31:25;;;;;;;;;;;;;;;;;;4976526;28;8392;-78
2022/07/06 15:33:51;;;;;;;;;;;;;;;;;;4976813;28;7147;-80
2022/07/06 15:36:16;;;;;;;;;;;;;;;;;;4977627;28;8413;-81
2022/07/06 15:38:42;;;;;;;;;;;;;;;;;;4977519;28;8374;-82
2022/07/06 15:41:07;;;;;;;;;;;;;;;;;;4977079;28;7054;-82
2022/07/06 15:43:33;;;;;;;;;;;;;;;;;;4977728;28;8663;-82
2022/07/06 15:46:00;;;;;;;;;;;;;;;;;;4976915;28;7102;-82
2022/07/06 15:48:27;;;;;;;;;;;;;;;;;;4976930;28;8524;-81
2022/07/06 15:50:53;;;;;;;;;;;;;;;;;;4976691;28;8411;-80
2022/07/06 15:53:18;;;;;;;;;;;;;;;;;;4976601;28;8856;-82
2022/07/06 15:55:44;;;;;;;;;;;;;;;;;;4976120;28;7147;-81
2022/07/06 15:58:10;;;;;;;;;;;;;;;;;;4976886;28;7061;-82
2022/07/06 16:00:35;;;;;;;;;;;;;;;;;;4977048;28;8699;-79
2022/07/06 16:03:01;;;;;;;;;;;;;;;;;;4976898;28;8439;-78
2022/07/06 16:05:28;;;;;;;;;;;;;;;;;;4976233;28;8536;-82
2022/07/06 16:07:53;;;;;;;;;;;;;;;;;;4977280;28;8552;-82
2022/07/06 16:10:19;;;;;;;;;;;;;;;;;;4976947;28;8434;-81
2022/07/06 16:12:44;;;;;;;;;;;;;;;;;;4973811;28;8443;-82
2022/07/06 16:15:10;;;;;;;;;;;;;;;;;;4956411;28;8386;-81
2022/07/06 16:17:37;;;;;;;;;;;;;;;;;;4961370;28;8726;-80
2022/07/06 16:20:02;;;;;;;;;;;;;;;;;;4967539;28;7182;-82
2022/07/06 16:22:30;;;;;;;;;;;;;;;;;;4972939;28;8979;-82
2022/07/06 16:24:56;;;;;;;;;;;;;;;;;;4976549;28;8849;-82
2022/07/06 16:27:22;;;;;;;;;;;;;;;;;;4973550;28;8417;-82
2022/07/06 16:29:47;;;;;;;;;;;;;;;;;;4958084;28;8737;-82
2022/07/06 16:32:13;;;;;;;;;;;;;;;;;;4958074;28;8438;-83
2022/07/06 16:34:38;;;;;;;;;;;;;;;;;;4957432;28;8600;-82
2022/07/06 16:37:04;;;;;;;;;;;;;;;;;;4957891;28;8707;-81
2022/07/06 16:39:29;;;;;;;;;;;;;;;;;;4957826;28;8606;-82
2022/07/06 16:41:55;;;;;;;;;;;;;;;;;;4958620;28;8587;-82
2022/07/06 16:44:21;;;;;;;;;;;;;;;;;;4957376;28;8420;-82
2022/07/06 16:46:47;;;;;;;;;;;;;;;;;;4958255;28;8382;-81
2022/07/06 16:49:12;;;;;;;;;;;;;;;;;;4957825;28;7168;-82
2022/07/06 16:51:38;;;;;;;;;;;;;;;;;;4957565;28;8581;-82
2022/07/06 16:54:03;;;;;;;;;;;;;;;;;;4957519;28;8779;-81
2022/07/06 16:56:29;;;;;;;;;;;;;;;;;;4957554;28;8471;-82
2022/07/06 16:58:54;;;;;;;;;;;;;;;;;;4957845;28;8569;-82
2022/07/06 17:01:19;;;;;;;;;;;;;;;;;;4957838;28;8388;-82
2022/07/06 17:03:45;;;;;;;;;;;;;;;;;;4958172;28;8407;-82
2022/07/06 17:06:11;;;;;;;;;;;;;;;;;;4973643;28;7119;-81
2022/07/06 17:08:36;;;;;;;;;;;;;;;;;;4960520;28;8534;-82